createdAt,value
2022-12-16T00:03:20.377Z,28.47
2022-12-16T00:08:43.112Z,39.50
2022-12-16T00:14:05.774Z,38.83
2022-12-16T00:19:28.173Z,21.27
2022-12-16T00:24:50.623Z,29.17
2022-12-16T00:30:13.157Z,32.80
2022-12-16T00:35:35.294Z,28.70
2022-12-16T00:40:57.524Z,33.87
2022-12-16T00:46:19.893Z,27.10
2022-12-16T00:51:42.424Z,26.37
2022-12-16T00:57:04.706Z,27.50
2022-12-16T01:02:27.425Z,22.60
2022-12-16T01:07:50.128Z,27.53
2022-12-16T01:13:14.031Z,29.40
2022-12-16T01:18:36.610Z,17.60
2022-12-16T01:23:59.076Z,27.80
2022-12-16T01:29:21.405Z,17.33
2022-12-16T01:34:47.348Z,21.77
2022-12-16T01:40:19.644Z,26.13
2022-12-16T01:45:42.372Z,18.10
2022-12-16T01:51:18.633Z,19.37
2022-12-16T01:56:45.370Z,20.97
2022-12-16T02:02:08.175Z,22.47
2022-12-16T02:07:31.159Z,17.27
2022-12-16T02:13:13.473Z,24.73
2022-12-16T02:18:41.061Z,31.30
2022-12-16T02:24:40.779Z,19.43
2022-12-16T02:30:29.293Z,31.53
2022-12-16T02:36:02.733Z,26.27
2022-12-16T02:41:46.593Z,22.60
2022-12-16T02:47:11.024Z,23.87
2022-12-16T02:52:35.089Z,22.60
2022-12-16T02:58:08.289Z,18.23
2022-12-16T03:03:57.579Z,33.27
2022-12-16T03:09:24.444Z,21.33
2022-12-16T03:14:50.061Z,20.23
2022-12-16T03:20:18.398Z,22.50
2022-12-16T03:25:44.186Z,17.43
2022-12-16T03:31:30.457Z,28.53
2022-12-16T03:37:00.487Z,35.57
2022-12-16T03:42:24.269Z,24.20
2022-12-16T03:47:51.489Z,15.47
2022-12-16T03:53:13.988Z,25.47
2022-12-16T03:58:38.039Z,23.60
2022-12-16T04:04:00.183Z,25.13
2022-12-16T04:09:23.296Z,25.77
2022-12-16T04:15:04.246Z,35.33
2022-12-16T04:20:52.515Z,18.60
2022-12-16T04:26:17.407Z,14.37
2022-12-16T04:31:39.990Z,27.40
2022-12-16T04:37:21.744Z,24.20
2022-12-16T04:43:02.688Z,15.73
2022-12-16T04:48:43.503Z,14.43
2022-12-16T04:54:38.238Z,31.00
2022-12-16T05:00:18.801Z,26.37
2022-12-16T05:05:59.632Z,36.23
2022-12-16T05:11:40.798Z,18.93
2022-12-16T05:17:21.697Z,21.03
2022-12-16T05:23:03.004Z,20.77
2022-12-16T05:28:43.611Z,24.50
2022-12-16T05:34:24.189Z,23.40
2022-12-16T05:40:04.934Z,24.33
2022-12-16T05:45:45.765Z,24.17
2022-12-16T05:51:27.110Z,18.07
2022-12-16T05:57:07.765Z,24.97
2022-12-16T06:02:48.577Z,15.30
2022-12-16T06:08:29.593Z,21.73
2022-12-16T06:14:10.561Z,23.37
2022-12-16T06:19:52.866Z,32.60
2022-12-16T06:25:34.123Z,31.40
2022-12-16T06:31:14.812Z,24.60
2022-12-16T06:36:55.685Z,24.20
2022-12-16T06:42:36.681Z,31.73
2022-12-16T06:48:17.493Z,41.07
2022-12-16T06:53:58.382Z,23.93
2022-12-16T06:59:39.524Z,21.07
2022-12-16T07:05:21.053Z,31.57
2022-12-16T07:11:15.615Z,29.63
2022-12-16T07:16:57.370Z,37.17
2022-12-16T07:22:38.504Z,28.50
2022-12-16T07:28:19.618Z,33.67
2022-12-16T07:34:00.450Z,43.47
2022-12-16T07:39:42.180Z,47.33
2022-12-16T07:45:24.474Z,35.47
2022-12-16T07:51:05.120Z,30.20
2022-12-16T07:56:46.026Z,30.70
2022-12-16T08:02:29.209Z,25.87
2022-12-16T08:08:10.550Z,42.20
2022-12-16T08:13:50.892Z,31.00
2022-12-16T08:19:32.419Z,41.17
2022-12-16T08:25:12.987Z,58.90
2022-12-16T08:30:53.457Z,51.47
2022-12-16T08:36:35.312Z,33.90
2022-12-16T08:42:16.073Z,38.03
2022-12-16T08:47:56.909Z,50.50
2022-12-16T08:53:38.096Z,46.20
2022-12-16T08:59:18.911Z,42.00
2022-12-16T09:04:59.729Z,33.43
2022-12-16T09:10:41.421Z,49.03
2022-12-16T09:22:53.370Z,46.40
2022-12-16T09:28:36.873Z,51.80
2022-12-16T09:34:17.557Z,57.77
2022-12-16T09:39:59.732Z,66.07
2022-12-16T09:45:59.232Z,55.67
2022-12-16T09:51:41.361Z,59.10
2022-12-16T09:57:26.877Z,66.80
2022-12-16T10:03:09.459Z,62.80
2022-12-16T10:09:03.338Z,74.77
2022-12-16T10:15:07.765Z,59.47
2022-12-16T10:21:08.039Z,65.53
2022-12-16T10:27:12.094Z,53.47
2022-12-16T10:33:06.313Z,60.93
2022-12-16T10:38:53.166Z,53.03
2022-12-16T10:45:05.692Z,64.10
2022-12-16T10:50:46.327Z,66.20
2022-12-16T10:56:48.323Z,62.80
2022-12-16T11:02:48.401Z,64.77
2022-12-16T11:08:45.392Z,76.47
2022-12-16T11:15:12.536Z,66.00
2022-12-16T11:20:50.835Z,65.03
2022-12-16T11:26:37.027Z,80.07
2022-12-16T11:32:39.540Z,64.37
2022-12-16T11:38:23.150Z,55.00
2022-12-16T11:44:10.823Z,56.20
2022-12-16T11:49:52.311Z,75.50
2022-12-16T11:56:04.545Z,60.47
2022-12-16T12:01:55.502Z,64.10
2022-12-16T12:07:45.435Z,59.07
2022-12-16T12:13:33.784Z,55.13
2022-12-16T12:19:43.972Z,57.27
2022-12-16T12:26:05.514Z,49.33
2022-12-16T12:32:08.131Z,51.20
2022-12-16T12:37:58.513Z,49.73
2022-12-16T12:43:45.488Z,49.63
2022-12-16T12:49:40.342Z,51.93
2022-12-16T12:55:50.017Z,61.93
2022-12-16T13:01:33.867Z,57.83
2022-12-16T13:07:17.866Z,54.90
2022-12-16T13:12:59.773Z,46.37
2022-12-16T13:18:42.649Z,45.27
2022-12-16T13:24:41.434Z,58.83
2022-12-16T13:30:38.109Z,48.60
2022-12-16T13:44:03.987Z,55.17
2022-12-16T13:50:05.137Z,54.37
2022-12-16T13:55:53.519Z,51.53
2022-12-16T14:01:41.560Z,62.03
2022-12-16T14:07:24.864Z,55.73
2022-12-16T14:13:44.367Z,41.10
2022-12-16T14:20:03.269Z,59.87
2022-12-16T14:25:45.294Z,51.03
2022-12-16T14:31:59.820Z,51.60
2022-12-16T14:37:56.713Z,56.70
2022-12-16T14:43:42.923Z,59.27
2022-12-16T14:49:38.571Z,52.47
2022-12-16T14:55:29.170Z,62.57
2022-12-16T15:01:16.022Z,54.83
2022-12-16T15:07:02.516Z,66.67
2022-12-16T15:12:48.815Z,59.87
2022-12-16T15:18:36.184Z,58.80
2022-12-16T15:24:17.263Z,57.47
2022-12-16T15:30:00.757Z,56.80
2022-12-16T15:35:44.840Z,53.70
2022-12-16T15:41:39.201Z,66.27
2022-12-16T15:47:20.210Z,61.50
2022-12-16T15:53:02.539Z,62.77
2022-12-16T15:58:50.991Z,64.53
2022-12-16T16:04:43.092Z,67.87
2022-12-16T16:10:41.902Z,63.50
2022-12-16T16:16:22.829Z,71.27
2022-12-16T16:22:04.832Z,69.57
2022-12-16T16:27:46.971Z,75.43
2022-12-16T16:33:35.745Z,57.47
2022-12-16T16:39:19.594Z,67.37
2022-12-16T16:45:00.145Z,59.10
2022-12-16T16:50:41.460Z,63.43
2022-12-16T16:56:23.308Z,70.73
2022-12-16T17:02:04.312Z,60.27
2022-12-16T17:07:50.617Z,67.03
2022-12-16T17:13:33.218Z,85.53
2022-12-16T17:19:14.363Z,62.77
2022-12-16T17:24:55.295Z,67.50
2022-12-16T17:30:46.888Z,71.00
2022-12-16T17:36:34.002Z,70.43
2022-12-16T17:42:15.785Z,67.47
2022-12-16T17:47:56.682Z,77.00
2022-12-16T17:53:38.014Z,66.83
2022-12-16T17:59:18.925Z,66.43
2022-12-16T18:04:59.490Z,64.57
2022-12-16T18:10:40.088Z,60.73
2022-12-16T18:16:20.728Z,73.30
2022-12-16T18:22:01.780Z,68.17
2022-12-16T18:27:42.769Z,84.93
2022-12-16T18:33:23.770Z,70.87
2022-12-16T18:39:04.738Z,74.97
2022-12-16T18:44:45.899Z,75.43
2022-12-16T18:50:29.558Z,62.53
2022-12-16T18:56:26.158Z,78.10
2022-12-16T19:02:07.035Z,91.07
2022-12-16T19:07:48.541Z,74.63
2022-12-16T19:13:32.219Z,71.53
2022-12-16T19:19:19.359Z,81.40
2022-12-16T19:25:01.380Z,78.27
2022-12-16T19:30:42.916Z,73.43
2022-12-16T19:36:23.869Z,74.97
2022-12-16T19:42:04.887Z,73.17
2022-12-16T19:47:45.855Z,74.10
2022-12-16T19:53:26.969Z,69.57
2022-12-16T19:59:10.278Z,85.67
2022-12-16T20:04:51.741Z,92.27
2022-12-16T20:10:32.819Z,77.37
2022-12-16T20:16:22.388Z,87.73
2022-12-16T20:22:06.900Z,85.67
2022-12-16T20:27:49.303Z,84.67
2022-12-16T20:33:32.554Z,97.37
2022-12-16T20:39:14.370Z,100.60
2022-12-16T20:50:56.763Z,97.40
2022-12-16T20:56:37.842Z,101.90
2022-12-16T21:02:23.836Z,92.63
2022-12-16T21:08:06.165Z,102.20
2022-12-16T21:13:47.958Z,103.07
2022-12-16T21:19:33.497Z,95.23
2022-12-16T21:25:16.715Z,92.90
2022-12-16T21:31:01.035Z,100.30
2022-12-16T21:36:42.343Z,117.87
2022-12-16T21:42:23.322Z,109.20
2022-12-16T21:48:04.648Z,107.67
2022-12-16T21:53:45.623Z,121.27
2022-12-16T21:59:27.033Z,112.53
2022-12-16T22:05:07.609Z,101.60
2022-12-16T22:10:49.402Z,125.60
2022-12-16T22:16:30.397Z,108.37
2022-12-16T22:22:11.497Z,105.03
2022-12-16T22:27:52.258Z,107.33
2022-12-16T22:33:37.105Z,109.43
2022-12-16T22:39:17.966Z,138.37
2022-12-16T22:44:59.231Z,105.37
2022-12-16T22:50:40.153Z,120.47
2022-12-16T22:56:20.851Z,110.70
2022-12-16T23:02:01.724Z,123.63
2022-12-16T23:07:43.176Z,125.30
2022-12-16T23:13:24.359Z,116.33
2022-12-16T23:19:05.263Z,110.70
2022-12-16T23:24:56.945Z,108.30
2022-12-16T23:30:38.168Z,124.27
2022-12-16T23:36:18.907Z,120.47
2022-12-16T23:41:59.826Z,110.37
2022-12-16T23:47:41.101Z,112.80
2022-12-16T23:53:26.744Z,118.10
2022-12-16T23:59:07.631Z,113.17
